sensor_id;sensor_type;location;lat;lon;timestamp;P1;durP1;ratioP1;P2;durP2;ratioP2
32108;SDS011;18624;50.042;8.436;2022-08-21T00:02:17;7.15;;;3.67;;
32108;SDS011;18624;50.042;8.436;2022-08-21T00:04:45;3.88;;;2.92;;
32108;SDS011;18624;50.042;8.436;2022-08-21T00:07:22;4.78;;;3.53;;
32108;SDS011;18624;50.042;8.436;2022-08-21T00:09:50;5.03;;;3.25;;
32108;SDS011;18624;50.042;8.436;2022-08-21T00:12:17;5.93;;;3.67;;
32108;SDS011;18624;50.042;8.436;2022-08-21T00:14:44;6.88;;;5.28;;
32108;SDS011;18624;50.042;8.436;2022-08-21T00:17:11;6.82;;;4.55;;
32108;SDS011;18624;50.042;8.436;2022-08-21T00:19:38;6.28;;;3.90;;
32108;SDS011;18624;50.042;8.436;2022-08-21T00:22:04;5.53;;;3.92;;
32108;SDS011;18624;50.042;8.436;2022-08-21T00:24:31;3.90;;;3.03;;
32108;SDS011;18624;50.042;8.436;2022-08-21T00:26:58;4.93;;;3.67;;
32108;SDS011;18624;50.042;8.436;2022-08-21T00:29:24;3.83;;;3.42;;
32108;SDS011;18624;50.042;8.436;2022-08-21T00:31:51;4.95;;;3.15;;
32108;SDS011;18624;50.042;8.436;2022-08-21T00:34:17;4.28;;;3.33;;
32108;SDS011;18624;50.042;8.436;2022-08-21T00:36:44;5.50;;;3.20;;
32108;SDS011;18624;50.042;8.436;2022-08-21T00:39:11;6.60;;;3.70;;
32108;SDS011;18624;50.042;8.436;2022-08-21T00:41:37;4.78;;;3.40;;
32108;SDS011;18624;50.042;8.436;2022-08-21T00:44:06;5.93;;;3.60;;
32108;SDS011;18624;50.042;8.436;2022-08-21T00:46:35;5.82;;;3.75;;
32108;SDS011;18624;50.042;8.436;2022-08-21T00:49:04;4.95;;;3.70;;
32108;SDS011;18624;50.042;8.436;2022-08-21T00:51:37;5.57;;;3.53;;
32108;SDS011;18624;50.042;8.436;2022-08-21T00:54:16;5.63;;;3.50;;
32108;SDS011;18624;50.042;8.436;2022-08-21T00:56:48;7.25;;;4.45;;
32108;SDS011;18624;50.042;8.436;2022-08-21T00:59:20;4.85;;;3.58;;
32108;SDS011;18624;50.042;8.436;2022-08-21T01:01:48;6.45;;;3.85;;
32108;SDS011;18624;50.042;8.436;2022-08-21T01:04:16;6.47;;;4.97;;
32108;SDS011;18624;50.042;8.436;2022-08-21T01:06:42;5.10;;;3.60;;
32108;SDS011;18624;50.042;8.436;2022-08-21T01:09:10;4.35;;;3.75;;
32108;SDS011;18624;50.042;8.436;2022-08-21T01:11:38;5.35;;;3.85;;
32108;SDS011;18624;50.042;8.436;2022-08-21T01:14:04;5.25;;;3.80;;
32108;SDS011;18624;50.042;8.436;2022-08-21T01:16:31;6.50;;;3.92;;
32108;SDS011;18624;50.042;8.436;2022-08-21T01:18:59;5.25;;;3.28;;
32108;SDS011;18624;50.042;8.436;2022-08-21T01:21:26;3.95;;;3.45;;
32108;SDS011;18624;50.042;8.436;2022-08-21T01:23:55;7.00;;;3.88;;
32108;SDS011;18624;50.042;8.436;2022-08-21T01:26:25;5.80;;;3.70;;
32108;SDS011;18624;50.042;8.436;2022-08-21T01:29:02;5.43;;;3.60;;
32108;SDS011;18624;50.042;8.436;2022-08-21T01:31:33;6.25;;;4.13;;
32108;SDS011;18624;50.042;8.436;2022-08-21T01:34:00;5.30;;;3.58;;
32108;SDS011;18624;50.042;8.436;2022-08-21T01:36:26;5.93;;;4.15;;
32108;SDS011;18624;50.042;8.436;2022-08-21T01:38:54;7.60;;;3.75;;
32108;SDS011;18624;50.042;8.436;2022-08-21T01:41:21;6.90;;;3.70;;
32108;SDS011;18624;50.042;8.436;2022-08-21T01:43:47;5.60;;;3.92;;
32108;SDS011;18624;50.042;8.436;2022-08-21T01:46:14;6.53;;;3.75;;
32108;SDS011;18624;50.042;8.436;2022-08-21T01:48:42;6.78;;;4.22;;
32108;SDS011;18624;50.042;8.436;2022-08-21T01:51:09;6.85;;;4.10;;
32108;SDS011;18624;50.042;8.436;2022-08-21T01:53:36;7.55;;;4.63;;
32108;SDS011;18624;50.042;8.436;2022-08-21T01:56:04;5.10;;;3.80;;
32108;SDS011;18624;50.042;8.436;2022-08-21T01:58:39;5.38;;;3.88;;
32108;SDS011;18624;50.042;8.436;2022-08-21T02:01:07;5.47;;;3.85;;
32108;SDS011;18624;50.042;8.436;2022-08-21T02:03:33;6.82;;;3.40;;
32108;SDS011;18624;50.042;8.436;2022-08-21T02:06:02;5.70;;;3.75;;
32108;SDS011;18624;50.042;8.436;2022-08-21T02:08:33;6.88;;;4.53;;
32108;SDS011;18624;50.042;8.436;2022-08-21T02:11:00;7.43;;;4.13;;
32108;SDS011;18624;50.042;8.436;2022-08-21T02:13:26;3.53;;;3.20;;
32108;SDS011;18624;50.042;8.436;2022-08-21T02:15:53;5.68;;;3.72;;
32108;SDS011;18624;50.042;8.436;2022-08-21T02:18:19;5.80;;;3.25;;
32108;SDS011;18624;50.042;8.436;2022-08-21T02:20:47;4.88;;;3.72;;
32108;SDS011;18624;50.042;8.436;2022-08-21T02:23:22;4.68;;;3.95;;
32108;SDS011;18624;50.042;8.436;2022-08-21T02:25:52;4.35;;;3.30;;
32108;SDS011;18624;50.042;8.436;2022-08-21T02:28:19;7.30;;;3.92;;
32108;SDS011;18624;50.042;8.436;2022-08-21T02:30:46;5.85;;;4.00;;
32108;SDS011;18624;50.042;8.436;2022-08-21T02:33:14;4.68;;;3.88;;
32108;SDS011;18624;50.042;8.436;2022-08-21T02:35:41;6.53;;;4.45;;
32108;SDS011;18624;50.042;8.436;2022-08-21T02:38:10;7.20;;;4.72;;
32108;SDS011;18624;50.042;8.436;2022-08-21T02:40:40;6.88;;;4.32;;
32108;SDS011;18624;50.042;8.436;2022-08-21T02:43:16;4.85;;;4.05;;
32108;SDS011;18624;50.042;8.436;2022-08-21T02:45:45;6.05;;;4.55;;
32108;SDS011;18624;50.042;8.436;2022-08-21T02:48:14;5.95;;;4.63;;
32108;SDS011;18624;50.042;8.436;2022-08-21T02:50:47;6.30;;;5.78;;
32108;SDS011;18624;50.042;8.436;2022-08-21T02:53:18;5.25;;;4.50;;
32108;SDS011;18624;50.042;8.436;2022-08-21T02:55:46;5.50;;;4.97;;
32108;SDS011;18624;50.042;8.436;2022-08-21T02:58:15;5.45;;;4.80;;
32108;SDS011;18624;50.042;8.436;2022-08-21T03:00:45;7.18;;;4.78;;
32108;SDS011;18624;50.042;8.436;2022-08-21T03:03:12;5.72;;;5.18;;
32108;SDS011;18624;50.042;8.436;2022-08-21T03:05:40;6.53;;;5.47;;
32108;SDS011;18624;50.042;8.436;2022-08-21T03:08:09;6.65;;;5.95;;
32108;SDS011;18624;50.042;8.436;2022-08-21T03:10:37;7.78;;;5.50;;
32108;SDS011;18624;50.042;8.436;2022-08-21T03:13:06;5.50;;;4.85;;
32108;SDS011;18624;50.042;8.436;2022-08-21T03:15:33;7.47;;;4.90;;
32108;SDS011;18624;50.042;8.436;2022-08-21T03:18:00;7.57;;;5.63;;
32108;SDS011;18624;50.042;8.436;2022-08-21T03:20:27;8.25;;;6.03;;
32108;SDS011;18624;50.042;8.436;2022-08-21T03:22:54;8.93;;;5.78;;
32108;SDS011;18624;50.042;8.436;2022-08-21T03:25:22;9.25;;;5.57;;
32108;SDS011;18624;50.042;8.436;2022-08-21T03:28:06;6.95;;;4.82;;
32108;SDS011;18624;50.042;8.436;2022-08-21T03:30:43;7.82;;;4.85;;
32108;SDS011;18624;50.042;8.436;2022-08-21T03:33:11;7.00;;;5.20;;
32108;SDS011;18624;50.042;8.436;2022-08-21T03:35:41;7.72;;;5.18;;
32108;SDS011;18624;50.042;8.436;2022-08-21T03:38:21;5.82;;;4.70;;
32108;SDS011;18624;50.042;8.436;2022-08-21T03:40:52;7.22;;;4.63;;
32108;SDS011;18624;50.042;8.436;2022-08-21T03:43:18;4.93;;;4.43;;
32108;SDS011;18624;50.042;8.436;2022-08-21T03:45:45;7.40;;;4.75;;
32108;SDS011;18624;50.042;8.436;2022-08-21T03:48:12;6.15;;;4.60;;
32108;SDS011;18624;50.042;8.436;2022-08-21T03:50:39;9.27;;;5.68;;
32108;SDS011;18624;50.042;8.436;2022-08-21T03:53:09;5.90;;;4.38;;
32108;SDS011;18624;50.042;8.436;2022-08-21T03:55:43;6.18;;;3.95;;
32108;SDS011;18624;50.042;8.436;2022-08-21T03:58:11;6.30;;;4.22;;
32108;SDS011;18624;50.042;8.436;2022-08-21T04:00:42;8.25;;;4.18;;
32108;SDS011;18624;50.042;8.436;2022-08-21T04:03:14;6.07;;;4.82;;
32108;SDS011;18624;50.042;8.436;2022-08-21T04:05:41;5.57;;;4.45;;
32108;SDS011;18624;50.042;8.436;2022-08-21T04:08:08;6.70;;;3.78;;
32108;SDS011;18624;50.042;8.436;2022-08-21T04:10:35;8.10;;;4.45;;
32108;SDS011;18624;50.042;8.436;2022-08-21T04:13:04;5.60;;;4.28;;
32108;SDS011;18624;50.042;8.436;2022-08-21T04:15:31;6.07;;;5.03;;
32108;SDS011;18624;50.042;8.436;2022-08-21T04:17:59;5.38;;;4.70;;
32108;SDS011;18624;50.042;8.436;2022-08-21T04:20:25;5.43;;;4.80;;
32108;SDS011;18624;50.042;8.436;2022-08-21T04:22:53;5.57;;;4.47;;
32108;SDS011;18624;50.042;8.436;2022-08-21T04:25:20;9.50;;;4.53;;
32108;SDS011;18624;50.042;8.436;2022-08-21T04:27:48;4.80;;;4.15;;
32108;SDS011;18624;50.042;8.436;2022-08-21T04:30:15;4.95;;;4.47;;
32108;SDS011;18624;50.042;8.436;2022-08-21T04:32:43;6.75;;;4.00;;
32108;SDS011;18624;50.042;8.436;2022-08-21T04:35:11;6.82;;;3.97;;
32108;SDS011;18624;50.042;8.436;2022-08-21T04:37:38;6.75;;;4.10;;
32108;SDS011;18624;50.042;8.436;2022-08-21T04:40:07;6.55;;;5.07;;
32108;SDS011;18624;50.042;8.436;2022-08-21T04:42:41;9.15;;;5.85;;
32108;SDS011;18624;50.042;8.436;2022-08-21T04:45:31;4.72;;;4.00;;
32108;SDS011;18624;50.042;8.436;2022-08-21T04:47:59;7.07;;;4.88;;
32108;SDS011;18624;50.042;8.436;2022-08-21T04:53:08;5.63;;;4.78;;
32108;SDS011;18624;50.042;8.436;2022-08-21T04:55:40;6.15;;;3.78;;
32108;SDS011;18624;50.042;8.436;2022-08-21T04:58:09;6.70;;;3.92;;
32108;SDS011;18624;50.042;8.436;2022-08-21T05:00:39;5.93;;;4.43;;
32108;SDS011;18624;50.042;8.436;2022-08-21T05:03:06;6.63;;;4.32;;
32108;SDS011;18624;50.042;8.436;2022-08-21T05:05:35;7.18;;;4.80;;
32108;SDS011;18624;50.042;8.436;2022-08-21T05:08:02;6.05;;;5.05;;
32108;SDS011;18624;50.042;8.436;2022-08-21T05:10:29;6.30;;;5.10;;
32108;SDS011;18624;50.042;8.436;2022-08-21T05:12:57;5.57;;;4.38;;
32108;SDS011;18624;50.042;8.436;2022-08-21T05:15:26;4.80;;;3.50;;
32108;SDS011;18624;50.042;8.436;2022-08-21T05:17:52;9.52;;;5.60;;
32108;SDS011;18624;50.042;8.436;2022-08-21T05:20:27;5.05;;;4.43;;
32108;SDS011;18624;50.042;8.436;2022-08-21T05:22:54;9.40;;;3.92;;
32108;SDS011;18624;50.042;8.436;2022-08-21T05:25:23;6.97;;;4.75;;
32108;SDS011;18624;50.042;8.436;2022-08-21T05:27:49;5.20;;;3.92;;
32108;SDS011;18624;50.042;8.436;2022-08-21T05:30:17;6.38;;;4.03;;
32108;SDS011;18624;50.042;8.436;2022-08-21T05:32:44;6.97;;;4.00;;
32108;SDS011;18624;50.042;8.436;2022-08-21T05:35:11;5.75;;;3.80;;
32108;SDS011;18624;50.042;8.436;2022-08-21T05:37:38;6.97;;;4.47;;
32108;SDS011;18624;50.042;8.436;2022-08-21T05:40:05;5.45;;;3.83;;
32108;SDS011;18624;50.042;8.436;2022-08-21T05:42:48;6.80;;;4.95;;
32108;SDS011;18624;50.042;8.436;2022-08-21T05:45:22;4.70;;;4.25;;
32108;SDS011;18624;50.042;8.436;2022-08-21T05:48:16;5.78;;;3.83;;
32108;SDS011;18624;50.042;8.436;2022-08-21T05:50:45;6.15;;;3.75;;
32108;SDS011;18624;50.042;8.436;2022-08-21T05:53:13;6.55;;;4.40;;
32108;SDS011;18624;50.042;8.436;2022-08-21T05:55:40;5.53;;;4.00;;
32108;SDS011;18624;50.042;8.436;2022-08-21T05:58:12;6.18;;;5.03;;
32108;SDS011;18624;50.042;8.436;2022-08-21T06:00:40;7.68;;;5.00;;
32108;SDS011;18624;50.042;8.436;2022-08-21T06:03:10;5.38;;;3.92;;
32108;SDS011;18624;50.042;8.436;2022-08-21T06:05:38;6.72;;;4.70;;
32108;SDS011;18624;50.042;8.436;2022-08-21T06:08:05;6.10;;;4.78;;
32108;SDS011;18624;50.042;8.436;2022-08-21T06:10:31;5.30;;;4.80;;
32108;SDS011;18624;50.042;8.436;2022-08-21T06:12:57;5.43;;;4.35;;
32108;SDS011;18624;50.042;8.436;2022-08-21T06:15:24;8.00;;;6.05;;
32108;SDS011;18624;50.042;8.436;2022-08-21T06:17:52;5.43;;;4.70;;
32108;SDS011;18624;50.042;8.436;2022-08-21T06:20:19;6.18;;;4.90;;
32108;SDS011;18624;50.042;8.436;2022-08-21T06:22:46;7.10;;;4.60;;
32108;SDS011;18624;50.042;8.436;2022-08-21T06:25:12;5.53;;;4.75;;
32108;SDS011;18624;50.042;8.436;2022-08-21T06:27:39;8.20;;;5.20;;
32108;SDS011;18624;50.042;8.436;2022-08-21T06:30:06;7.25;;;4.53;;
32108;SDS011;18624;50.042;8.436;2022-08-21T06:32:34;18.92;;;6.22;;
32108;SDS011;18624;50.042;8.436;2022-08-21T06:35:01;9.20;;;4.15;;
32108;SDS011;18624;50.042;8.436;2022-08-21T06:37:27;8.18;;;4.85;;
32108;SDS011;18624;50.042;8.436;2022-08-21T06:39:54;11.10;;;5.30;;
32108;SDS011;18624;50.042;8.436;2022-08-21T06:42:21;7.65;;;4.90;;
32108;SDS011;18624;50.042;8.436;2022-08-21T06:44:54;7.90;;;4.97;;
32108;SDS011;18624;50.042;8.436;2022-08-21T06:47:21;6.03;;;4.22;;
32108;SDS011;18624;50.042;8.436;2022-08-21T06:49:47;4.50;;;4.07;;
32108;SDS011;18624;50.042;8.436;2022-08-21T06:52:14;13.07;;;5.72;;
32108;SDS011;18624;50.042;8.436;2022-08-21T06:54:41;7.28;;;5.35;;
32108;SDS011;18624;50.042;8.436;2022-08-21T06:57:07;5.53;;;4.68;;
32108;SDS011;18624;50.042;8.436;2022-08-21T06:59:34;9.73;;;5.25;;
32108;SDS011;18624;50.042;8.436;2022-08-21T07:02:03;10.00;;;5.95;;
32108;SDS011;18624;50.042;8.436;2022-08-21T07:04:32;7.75;;;5.03;;
32108;SDS011;18624;50.042;8.436;2022-08-21T07:06:59;6.55;;;4.72;;
32108;SDS011;18624;50.042;8.436;2022-08-21T07:09:25;8.57;;;5.22;;
32108;SDS011;18624;50.042;8.436;2022-08-21T07:11:53;8.52;;;5.10;;
32108;SDS011;18624;50.042;8.436;2022-08-21T07:14:21;6.75;;;5.90;;
32108;SDS011;18624;50.042;8.436;2022-08-21T07:16:48;6.65;;;5.05;;
32108;SDS011;18624;50.042;8.436;2022-08-21T07:19:15;7.72;;;5.20;;
32108;SDS011;18624;50.042;8.436;2022-08-21T07:21:42;7.57;;;5.72;;
32108;SDS011;18624;50.042;8.436;2022-08-21T07:24:08;5.68;;;4.82;;
32108;SDS011;18624;50.042;8.436;2022-08-21T07:26:35;9.55;;;5.50;;
32108;SDS011;18624;50.042;8.436;2022-08-21T07:29:02;10.70;;;5.72;;
32108;SDS011;18624;50.042;8.436;2022-08-21T07:31:29;8.70;;;5.93;;
32108;SDS011;18624;50.042;8.436;2022-08-21T07:33:56;9.15;;;6.43;;
32108;SDS011;18624;50.042;8.436;2022-08-21T07:36:23;6.53;;;5.50;;
32108;SDS011;18624;50.042;8.436;2022-08-21T07:38:49;8.57;;;4.70;;
32108;SDS011;18624;50.042;8.436;2022-08-21T07:41:19;6.28;;;4.60;;
32108;SDS011;18624;50.042;8.436;2022-08-21T07:43:51;7.50;;;5.28;;
32108;SDS011;18624;50.042;8.436;2022-08-21T07:46:18;5.05;;;4.53;;
32108;SDS011;18624;50.042;8.436;2022-08-21T07:48:45;8.82;;;5.53;;
32108;SDS011;18624;50.042;8.436;2022-08-21T07:51:12;8.68;;;5.95;;
32108;SDS011;18624;50.042;8.436;2022-08-21T07:53:41;6.40;;;5.80;;
32108;SDS011;18624;50.042;8.436;2022-08-21T07:56:07;8.20;;;5.60;;
32108;SDS011;18624;50.042;8.436;2022-08-21T07:58:36;7.50;;;5.03;;
32108;SDS011;18624;50.042;8.436;2022-08-21T08:01:04;7.18;;;5.60;;
32108;SDS011;18624;50.042;8.436;2022-08-21T08:03:32;9.10;;;5.90;;
32108;SDS011;18624;50.042;8.436;2022-08-21T08:05:59;8.13;;;6.15;;
32108;SDS011;18624;50.042;8.436;2022-08-21T08:08:25;7.57;;;6.45;;
32108;SDS011;18624;50.042;8.436;2022-08-21T08:10:52;7.20;;;5.45;;
32108;SDS011;18624;50.042;8.436;2022-08-21T08:13:21;7.65;;;6.05;;
32108;SDS011;18624;50.042;8.436;2022-08-21T08:15:48;6.15;;;5.50;;
32108;SDS011;18624;50.042;8.436;2022-08-21T08:18:15;7.68;;;5.88;;
32108;SDS011;18624;50.042;8.436;2022-08-21T08:20:42;6.18;;;5.45;;
32108;SDS011;18624;50.042;8.436;2022-08-21T08:23:12;10.90;;;7.15;;
32108;SDS011;18624;50.042;8.436;2022-08-21T08:25:40;6.75;;;6.07;;
32108;SDS011;18624;50.042;8.436;2022-08-21T08:28:06;6.38;;;5.63;;
32108;SDS011;18624;50.042;8.436;2022-08-21T08:30:43;8.75;;;7.00;;
32108;SDS011;18624;50.042;8.436;2022-08-21T08:33:11;9.20;;;7.15;;
32108;SDS011;18624;50.042;8.436;2022-08-21T08:35:37;10.18;;;7.28;;
32108;SDS011;18624;50.042;8.436;2022-08-21T08:38:04;8.38;;;6.10;;
32108;SDS011;18624;50.042;8.436;2022-08-21T08:43:29;7.90;;;6.50;;
32108;SDS011;18624;50.042;8.436;2022-08-21T08:45:58;9.20;;;7.25;;
32108;SDS011;18624;50.042;8.436;2022-08-21T08:51:10;9.32;;;7.20;;
32108;SDS011;18624;50.042;8.436;2022-08-21T08:53:47;7.80;;;6.53;;
32108;SDS011;18624;50.042;8.436;2022-08-21T08:56:18;9.43;;;6.97;;
32108;SDS011;18624;50.042;8.436;2022-08-21T08:58:47;9.98;;;6.25;;
32108;SDS011;18624;50.042;8.436;2022-08-21T09:01:17;7.18;;;6.43;;
32108;SDS011;18624;50.042;8.436;2022-08-21T09:03:46;6.05;;;5.40;;
32108;SDS011;18624;50.042;8.436;2022-08-21T09:19:46;7.22;;;4.60;;
32108;SDS011;18624;50.042;8.436;2022-08-21T09:27:19;7.68;;;4.63;;
32108;SDS011;18624;50.042;8.436;2022-08-21T09:29:50;9.23;;;5.80;;
32108;SDS011;18624;50.042;8.436;2022-08-21T09:32:30;8.20;;;5.10;;
32108;SDS011;18624;50.042;8.436;2022-08-21T09:37:34;6.00;;;4.55;;
32108;SDS011;18624;50.042;8.436;2022-08-21T09:45:37;7.50;;;5.18;;
32108;SDS011;18624;50.042;8.436;2022-08-21T09:48:14;6.65;;;4.63;;
32108;SDS011;18624;50.042;8.436;2022-08-21T09:50:41;6.00;;;4.32;;
32108;SDS011;18624;50.042;8.436;2022-08-21T09:53:20;8.10;;;4.38;;
32108;SDS011;18624;50.042;8.436;2022-08-21T09:55:51;7.10;;;4.70;;
32108;SDS011;18624;50.042;8.436;2022-08-21T09:58:42;8.02;;;4.82;;
32108;SDS011;18624;50.042;8.436;2022-08-21T10:01:15;8.70;;;4.60;;
32108;SDS011;18624;50.042;8.436;2022-08-21T10:04:01;6.57;;;4.18;;
32108;SDS011;18624;50.042;8.436;2022-08-21T10:06:34;7.55;;;4.97;;
32108;SDS011;18624;50.042;8.436;2022-08-21T10:09:14;6.68;;;4.18;;
32108;SDS011;18624;50.042;8.436;2022-08-21T10:11:52;6.47;;;3.88;;
32108;SDS011;18624;50.042;8.436;2022-08-21T10:17:27;6.35;;;3.40;;
32108;SDS011;18624;50.042;8.436;2022-08-21T10:20:46;7.22;;;3.70;;
32108;SDS011;18624;50.042;8.436;2022-08-21T10:23:11;5.88;;;3.55;;
32108;SDS011;18624;50.042;8.436;2022-08-21T10:37:18;5.43;;;3.88;;
32108;SDS011;18624;50.042;8.436;2022-08-21T10:42:36;8.48;;;4.63;;
32108;SDS011;18624;50.042;8.436;2022-08-21T10:47:53;7.15;;;3.63;;
32108;SDS011;18624;50.042;8.436;2022-08-21T10:50:31;7.00;;;3.70;;
32108;SDS011;18624;50.042;8.436;2022-08-21T10:58:30;5.15;;;3.25;;
32108;SDS011;18624;50.042;8.436;2022-08-21T11:01:12;8.98;;;4.13;;
32108;SDS011;18624;50.042;8.436;2022-08-21T11:03:46;6.40;;;3.15;;
32108;SDS011;18624;50.042;8.436;2022-08-21T11:06:23;5.63;;;4.38;;
32108;SDS011;18624;50.042;8.436;2022-08-21T11:08:55;7.32;;;3.95;;
32108;SDS011;18624;50.042;8.436;2022-08-21T11:12:00;8.90;;;3.47;;
32108;SDS011;18624;50.042;8.436;2022-08-21T11:14:41;6.88;;;3.45;;
32108;SDS011;18624;50.042;8.436;2022-08-21T11:17:16;6.88;;;3.45;;
32108;SDS011;18624;50.042;8.436;2022-08-21T11:20:12;4.47;;;3.38;;
32108;SDS011;18624;50.042;8.436;2022-08-21T11:22:46;5.90;;;2.97;;
32108;SDS011;18624;50.042;8.436;2022-08-21T11:25:23;5.57;;;3.45;;
32108;SDS011;18624;50.042;8.436;2022-08-21T11:30:44;4.35;;;3.08;;
32108;SDS011;18624;50.042;8.436;2022-08-21T11:33:26;4.35;;;3.33;;
32108;SDS011;18624;50.042;8.436;2022-08-21T11:36:17;6.13;;;3.45;;
32108;SDS011;18624;50.042;8.436;2022-08-21T11:39:16;7.78;;;3.63;;
32108;SDS011;18624;50.042;8.436;2022-08-21T11:44:41;8.60;;;3.95;;
32108;SDS011;18624;50.042;8.436;2022-08-21T11:47:29;5.28;;;2.75;;
32108;SDS011;18624;50.042;8.436;2022-08-21T11:53:01;5.20;;;3.05;;
32108;SDS011;18624;50.042;8.436;2022-08-21T11:55:45;6.85;;;3.20;;
32108;SDS011;18624;50.042;8.436;2022-08-21T11:58:20;5.05;;;2.97;;
32108;SDS011;18624;50.042;8.436;2022-08-21T12:00:52;5.30;;;2.72;;
32108;SDS011;18624;50.042;8.436;2022-08-21T12:06:13;6.93;;;3.10;;
32108;SDS011;18624;50.042;8.436;2022-08-21T12:08:57;6.85;;;3.30;;
32108;SDS011;18624;50.042;8.436;2022-08-21T12:11:27;5.57;;;3.80;;
32108;SDS011;18624;50.042;8.436;2022-08-21T12:16:41;4.55;;;3.50;;
32108;SDS011;18624;50.042;8.436;2022-08-21T12:19:11;5.10;;;2.78;;
32108;SDS011;18624;50.042;8.436;2022-08-21T12:21:50;6.97;;;2.95;;
32108;SDS011;18624;50.042;8.436;2022-08-21T12:27:39;4.57;;;3.03;;
32108;SDS011;18624;50.042;8.436;2022-08-21T12:29:50;4.43;;;3.15;;
32108;SDS011;18624;50.042;8.436;2022-08-21T12:32:30;4.50;;;2.53;;
32108;SDS011;18624;50.042;8.436;2022-08-21T12:35:14;3.50;;;2.80;;
32108;SDS011;18624;50.042;8.436;2022-08-21T12:43:37;4.50;;;2.80;;
32108;SDS011;18624;50.042;8.436;2022-08-21T12:46:19;4.00;;;3.00;;
32108;SDS011;18624;50.042;8.436;2022-08-21T12:48:51;8.00;;;3.60;;
32108;SDS011;18624;50.042;8.436;2022-08-21T12:51:24;4.00;;;2.67;;
32108;SDS011;18624;50.042;8.436;2022-08-21T12:53:58;4.25;;;2.58;;
32108;SDS011;18624;50.042;8.436;2022-08-21T12:56:31;6.03;;;3.00;;
32108;SDS011;18624;50.042;8.436;2022-08-21T13:01:35;6.75;;;3.63;;
32108;SDS011;18624;50.042;8.436;2022-08-21T13:04:08;6.53;;;3.00;;
32108;SDS011;18624;50.042;8.436;2022-08-21T13:06:40;5.93;;;3.80;;
32108;SDS011;18624;50.042;8.436;2022-08-21T13:09:09;6.88;;;4.00;;
32108;SDS011;18624;50.042;8.436;2022-08-21T13:11:45;4.38;;;2.78;;
32108;SDS011;18624;50.042;8.436;2022-08-21T13:14:29;5.28;;;2.75;;
32108;SDS011;18624;50.042;8.436;2022-08-21T13:17:04;6.28;;;3.17;;
32108;SDS011;18624;50.042;8.436;2022-08-21T13:19:33;4.13;;;2.40;;
32108;SDS011;18624;50.042;8.436;2022-08-21T13:22:01;6.72;;;2.95;;
32108;SDS011;18624;50.042;8.436;2022-08-21T13:24:49;5.05;;;2.70;;
32108;SDS011;18624;50.042;8.436;2022-08-21T13:27:27;3.33;;;2.38;;
32108;SDS011;18624;50.042;8.436;2022-08-21T13:30:40;3.55;;;2.28;;
32108;SDS011;18624;50.042;8.436;2022-08-21T13:32:49;7.68;;;2.80;;
32108;SDS011;18624;50.042;8.436;2022-08-21T13:35:23;4.53;;;2.47;;
32108;SDS011;18624;50.042;8.436;2022-08-21T13:37:52;2.65;;;2.25;;
32108;SDS011;18624;50.042;8.436;2022-08-21T13:40:41;7.22;;;2.60;;
32108;SDS011;18624;50.042;8.436;2022-08-21T13:43:20;7.25;;;2.95;;
32108;SDS011;18624;50.042;8.436;2022-08-21T13:45:50;3.97;;;2.88;;
32108;SDS011;18624;50.042;8.436;2022-08-21T13:48:18;5.78;;;2.38;;
32108;SDS011;18624;50.042;8.436;2022-08-21T13:50:47;4.65;;;2.38;;
32108;SDS011;18624;50.042;8.436;2022-08-21T13:55:48;4.15;;;2.60;;
32108;SDS011;18624;50.042;8.436;2022-08-21T13:58:24;4.05;;;2.53;;
32108;SDS011;18624;50.042;8.436;2022-08-21T14:00:53;3.90;;;2.70;;
32108;SDS011;18624;50.042;8.436;2022-08-21T14:03:27;5.47;;;2.83;;
32108;SDS011;18624;50.042;8.436;2022-08-21T14:05:58;4.65;;;2.72;;
32108;SDS011;18624;50.042;8.436;2022-08-21T14:11:03;4.55;;;2.55;;
32108;SDS011;18624;50.042;8.436;2022-08-21T14:13:44;4.25;;;2.33;;
32108;SDS011;18624;50.042;8.436;2022-08-21T14:16:18;4.78;;;2.45;;
32108;SDS011;18624;50.042;8.436;2022-08-21T14:18:48;5.18;;;2.67;;
32108;SDS011;18624;50.042;8.436;2022-08-21T14:21:24;4.07;;;2.55;;
32108;SDS011;18624;50.042;8.436;2022-08-21T14:23:59;4.20;;;2.58;;
32108;SDS011;18624;50.042;8.436;2022-08-21T14:26:30;3.85;;;2.63;;
32108;SDS011;18624;50.042;8.436;2022-08-21T14:28:58;4.65;;;2.47;;
32108;SDS011;18624;50.042;8.436;2022-08-21T14:31:34;4.10;;;2.40;;
32108;SDS011;18624;50.042;8.436;2022-08-21T14:34:09;7.90;;;2.78;;
32108;SDS011;18624;50.042;8.436;2022-08-21T14:36:45;4.93;;;2.15;;
32108;SDS011;18624;50.042;8.436;2022-08-21T14:39:13;4.97;;;2.45;;
32108;SDS011;18624;50.042;8.436;2022-08-21T14:41:39;4.72;;;2.42;;
32108;SDS011;18624;50.042;8.436;2022-08-21T14:44:08;5.03;;;2.40;;
32108;SDS011;18624;50.042;8.436;2022-08-21T14:46:36;4.65;;;3.03;;
32108;SDS011;18624;50.042;8.436;2022-08-21T14:49:22;3.85;;;2.67;;
32108;SDS011;18624;50.042;8.436;2022-08-21T14:51:49;6.22;;;2.50;;
32108;SDS011;18624;50.042;8.436;2022-08-21T14:56:57;4.47;;;2.28;;
32108;SDS011;18624;50.042;8.436;2022-08-21T14:59:26;4.80;;;2.22;;
32108;SDS011;18624;50.042;8.436;2022-08-21T15:01:52;4.35;;;2.42;;
32108;SDS011;18624;50.042;8.436;2022-08-21T15:04:19;4.18;;;2.58;;
32108;SDS011;18624;50.042;8.436;2022-08-21T15:06:45;4.57;;;2.35;;
32108;SDS011;18624;50.042;8.436;2022-08-21T15:09:12;3.92;;;2.17;;
32108;SDS011;18624;50.042;8.436;2022-08-21T15:11:38;3.85;;;2.40;;
32108;SDS011;18624;50.042;8.436;2022-08-21T15:14:09;4.45;;;2.30;;
32108;SDS011;18624;50.042;8.436;2022-08-21T15:16:39;3.75;;;2.60;;
32108;SDS011;18624;50.042;8.436;2022-08-21T15:19:05;4.20;;;2.80;;
32108;SDS011;18624;50.042;8.436;2022-08-21T15:21:32;5.65;;;2.45;;
32108;SDS011;18624;50.042;8.436;2022-08-21T15:23:58;2.50;;;1.92;;
32108;SDS011;18624;50.042;8.436;2022-08-21T15:26:25;2.58;;;2.28;;
32108;SDS011;18624;50.042;8.436;2022-08-21T15:28:51;3.10;;;2.20;;
32108;SDS011;18624;50.042;8.436;2022-08-21T15:31:18;7.10;;;2.35;;
32108;SDS011;18624;50.042;8.436;2022-08-21T15:33:44;2.60;;;1.85;;
32108;SDS011;18624;50.042;8.436;2022-08-21T15:36:11;3.30;;;2.53;;
32108;SDS011;18624;50.042;8.436;2022-08-21T15:38:37;4.75;;;2.85;;
32108;SDS011;18624;50.042;8.436;2022-08-21T15:41:04;3.63;;;2.42;;
32108;SDS011;18624;50.042;8.436;2022-08-21T15:43:41;3.70;;;2.58;;
32108;SDS011;18624;50.042;8.436;2022-08-21T15:46:12;5.80;;;2.42;;
32108;SDS011;18624;50.042;8.436;2022-08-21T15:48:41;2.90;;;2.55;;
32108;SDS011;18624;50.042;8.436;2022-08-21T15:51:09;3.00;;;2.15;;
32108;SDS011;18624;50.042;8.436;2022-08-21T15:53:36;5.38;;;2.63;;
32108;SDS011;18624;50.042;8.436;2022-08-21T15:56:06;5.20;;;2.30;;
32108;SDS011;18624;50.042;8.436;2022-08-21T15:58:40;3.15;;;2.40;;
32108;SDS011;18624;50.042;8.436;2022-08-21T16:01:07;4.95;;;2.58;;
32108;SDS011;18624;50.042;8.436;2022-08-21T16:03:34;5.82;;;2.50;;
32108;SDS011;18624;50.042;8.436;2022-08-21T16:06:00;4.30;;;3.08;;
32108;SDS011;18624;50.042;8.436;2022-08-21T16:08:27;4.68;;;2.38;;
32108;SDS011;18624;50.042;8.436;2022-08-21T16:10:53;3.53;;;2.10;;
32108;SDS011;18624;50.042;8.436;2022-08-21T16:13:28;4.30;;;2.50;;
32108;SDS011;18624;50.042;8.436;2022-08-21T16:16:02;3.10;;;2.00;;
32108;SDS011;18624;50.042;8.436;2022-08-21T16:18:29;4.13;;;2.17;;
32108;SDS011;18624;50.042;8.436;2022-08-21T16:20:56;3.70;;;2.30;;
32108;SDS011;18624;50.042;8.436;2022-08-21T16:23:22;2.47;;;2.00;;
32108;SDS011;18624;50.042;8.436;2022-08-21T16:25:49;4.55;;;2.50;;
32108;SDS011;18624;50.042;8.436;2022-08-21T16:28:17;5.25;;;3.10;;
32108;SDS011;18624;50.042;8.436;2022-08-21T16:30:47;3.90;;;2.40;;
32108;SDS011;18624;50.042;8.436;2022-08-21T16:33:20;3.53;;;2.08;;
32108;SDS011;18624;50.042;8.436;2022-08-21T16:35:52;3.33;;;1.92;;
32108;SDS011;18624;50.042;8.436;2022-08-21T16:38:19;3.70;;;2.63;;
32108;SDS011;18624;50.042;8.436;2022-08-21T16:40:46;2.70;;;2.03;;
32108;SDS011;18624;50.042;8.436;2022-08-21T16:43:12;3.50;;;2.20;;